createdAt,value
2022-10-09T00:01:34.155Z,100.00
2022-10-09T00:04:02.341Z,100.00
2022-10-09T00:06:32.718Z,100.00
2022-10-09T00:09:02.287Z,100.00
2022-10-09T00:11:33.129Z,100.00
2022-10-09T00:14:03.774Z,100.00
2022-10-09T00:16:32.337Z,100.00
2022-10-09T00:19:00.715Z,100.00
2022-10-09T00:21:31.553Z,100.00
2022-10-09T00:24:01.943Z,100.00
2022-10-09T00:26:30.773Z,99.61
2022-10-09T00:29:00.659Z,99.60
2022-10-09T00:31:30.268Z,100.00
2022-10-09T00:33:58.745Z,100.00
2022-10-09T00:36:28.016Z,100.00
2022-10-09T00:38:56.382Z,100.00
2022-10-09T00:41:26.884Z,100.00
2022-10-09T00:43:58.792Z,100.00
2022-10-09T00:46:36.529Z,100.00
2022-10-09T00:49:11.854Z,100.00
2022-10-09T00:51:40.505Z,100.00
2022-10-09T00:54:11.555Z,100.00
2022-10-09T00:56:39.883Z,100.00
2022-10-09T00:59:08.644Z,100.00
2022-10-09T01:01:40.350Z,100.00
2022-10-09T01:04:08.862Z,100.00
2022-10-09T01:06:47.852Z,100.00
2022-10-09T03:02:14.169Z,100.00
2022-10-09T03:04:42.501Z,100.00
2022-10-09T03:07:10.815Z,100.00
2022-10-09T03:09:39.372Z,100.00
2022-10-09T03:12:07.492Z,100.00
2022-10-09T03:14:35.742Z,100.00
2022-10-09T04:01:03.212Z,100.00
2022-10-09T04:03:31.457Z,100.00
2022-10-09T04:05:59.229Z,100.00
2022-10-09T04:08:27.757Z,100.00
2022-10-09T04:10:58.483Z,100.00
2022-10-09T04:13:26.416Z,100.00
2022-10-09T04:53:51.645Z,100.00
2022-10-09T05:39:58.305Z,100.00
2022-10-09T05:45:17.944Z,100.00
2022-10-09T05:47:46.740Z,100.00
2022-10-09T05:50:20.688Z,100.00
2022-10-09T05:52:54.892Z,100.00
2022-10-09T05:55:48.952Z,100.00
2022-10-09T05:58:17.542Z,100.00
2022-10-09T06:00:54.232Z,100.00
2022-10-09T06:03:24.066Z,100.00
2022-10-09T06:09:04.257Z,100.00
2022-10-09T06:14:22.357Z,100.00
2022-10-09T06:16:52.561Z,100.00
2022-10-09T06:19:21.793Z,100.00
2022-10-09T06:21:53.882Z,100.00
2022-10-09T06:24:32.534Z,100.00
2022-10-09T06:27:02.819Z,100.00
2022-10-09T06:29:35.889Z,100.00
2022-10-09T06:32:17.203Z,100.00
2022-10-09T06:34:45.410Z,100.00
2022-10-09T06:37:16.678Z,100.00
2022-10-09T06:39:50.144Z,100.00
2022-10-09T06:42:20.323Z,100.00
2022-10-09T06:44:57.580Z,100.00
2022-10-09T06:47:27.665Z,100.00
2022-10-09T06:50:01.428Z,100.00
2022-10-09T06:52:50.852Z,100.00
2022-10-09T06:55:28.733Z,100.00
2022-10-09T06:58:11.218Z,100.00
2022-10-09T07:00:44.170Z,100.00
2022-10-09T07:03:29.282Z,100.00
2022-10-09T07:08:54.627Z,98.77
2022-10-09T07:11:34.757Z,99.43
2022-10-09T07:14:07.032Z,97.74
2022-10-09T07:16:38.404Z,98.09
2022-10-09T07:19:21.068Z,97.25
2022-10-09T07:21:56.468Z,96.71
2022-10-09T07:24:26.954Z,95.82
2022-10-09T07:26:59.695Z,95.14
2022-10-09T07:32:32.530Z,94.92
2022-10-09T07:35:05.532Z,93.45
2022-10-09T07:40:29.186Z,92.06
2022-10-09T07:43:34.121Z,89.71
2022-10-09T07:53:32.567Z,87.85
2022-10-09T07:56:07.039Z,86.27
2022-10-09T07:58:51.728Z,84.86
2022-10-09T08:04:32.126Z,83.57
2022-10-09T08:07:18.750Z,83.16
2022-10-09T08:10:03.804Z,82.15
2022-10-09T08:13:09.778Z,82.85
2022-10-09T08:15:47.589Z,80.63
2022-10-09T08:21:46.977Z,82.45
2022-10-09T08:24:29.769Z,83.42
2022-10-09T08:27:01.517Z,83.45
2022-10-09T08:29:57.164Z,82.67
2022-10-09T08:33:01.660Z,81.62
2022-10-09T08:39:26.291Z,81.40
2022-10-09T08:48:50.571Z,81.10
2022-10-09T08:55:07.057Z,77.89
2022-10-09T08:58:32.871Z,78.00
2022-10-09T09:02:17.096Z,77.80
2022-10-09T09:05:02.523Z,78.36
2022-10-09T09:07:39.632Z,77.96
2022-10-09T09:10:15.211Z,77.14
2022-10-09T09:12:55.299Z,76.14
2022-10-09T09:15:36.539Z,74.00
2022-10-09T09:18:15.847Z,71.52
2022-10-09T09:20:52.482Z,66.85
2022-10-09T09:23:26.690Z,64.99
2022-10-09T09:25:54.661Z,63.83
2022-10-09T09:28:26.377Z,62.48
2022-10-09T09:30:58.452Z,61.91
2022-10-09T09:33:39.020Z,60.40
2022-10-09T09:36:17.958Z,57.72
2022-10-09T09:39:24.890Z,54.41
2022-10-09T09:41:34.565Z,54.33
2022-10-09T09:44:03.058Z,54.90
2022-10-09T09:46:33.555Z,55.16
2022-10-09T09:49:04.719Z,53.80
2022-10-09T09:51:37.419Z,52.30
2022-10-09T09:54:08.886Z,51.63
2022-10-09T09:57:10.348Z,49.01
2022-10-09T09:59:34.778Z,47.08
2022-10-09T10:02:11.532Z,44.49
2022-10-09T10:04:49.931Z,45.01
2022-10-09T10:07:30.653Z,44.27
2022-10-09T10:10:14.436Z,42.29
2022-10-09T10:12:43.428Z,42.61
2022-10-09T10:15:21.753Z,41.82
2022-10-09T10:17:51.618Z,42.40
2022-10-09T10:20:19.950Z,43.10
2022-10-09T10:22:53.942Z,45.09
2022-10-09T10:25:25.703Z,43.72
2022-10-09T10:27:59.263Z,39.34
2022-10-09T10:30:27.379Z,40.44
2022-10-09T10:33:01.782Z,39.42
2022-10-09T10:35:33.499Z,37.90
2022-10-09T10:38:08.849Z,37.79
2022-10-09T10:40:39.606Z,37.25
2022-10-09T10:43:30.748Z,36.23
2022-10-09T10:46:07.511Z,36.08
2022-10-09T10:48:40.436Z,36.25
2022-10-09T10:51:30.165Z,37.45
2022-10-09T10:54:11.295Z,35.99
2022-10-09T10:56:43.278Z,35.67
2022-10-09T10:59:29.599Z,34.68
2022-10-09T11:02:48.732Z,33.64
2022-10-09T11:05:27.132Z,34.68
2022-10-09T11:08:09.935Z,35.11
2022-10-09T11:10:52.145Z,36.62
2022-10-09T11:13:25.020Z,35.12
2022-10-09T11:16:02.528Z,35.03
2022-10-09T11:18:54.177Z,33.02
2022-10-09T11:21:37.058Z,34.54
2022-10-09T11:24:27.022Z,31.49
2022-10-09T11:27:03.630Z,32.33
2022-10-09T11:29:38.466Z,32.63
2022-10-09T11:32:13.746Z,31.94
2022-10-09T11:34:48.228Z,29.20
2022-10-09T11:37:22.523Z,29.61
2022-10-09T11:39:50.919Z,30.34
2022-10-09T11:42:25.021Z,31.49
2022-10-09T11:45:05.496Z,31.09
2022-10-09T11:47:40.608Z,32.05
2022-10-09T11:50:21.069Z,30.29
2022-10-09T11:52:55.086Z,29.82
2022-10-09T11:55:27.008Z,29.63
2022-10-09T11:57:56.832Z,29.61
2022-10-09T12:00:33.944Z,29.02
2022-10-09T12:03:04.515Z,28.76
2022-10-09T12:05:42.992Z,30.05
2022-10-09T12:08:18.286Z,28.83
2022-10-09T12:10:54.416Z,28.87
2022-10-09T12:13:42.858Z,27.67
2022-10-09T12:16:29.677Z,28.75
2022-10-09T12:19:00.531Z,28.79
2022-10-09T12:21:35.616Z,29.66
2022-10-09T12:24:04.500Z,28.52
2022-10-09T12:26:33.645Z,27.58
2022-10-09T12:29:06.098Z,26.52
2022-10-09T12:31:39.519Z,28.05
2022-10-09T12:34:19.116Z,27.99
2022-10-09T12:36:47.464Z,27.19
2022-10-09T12:39:20.599Z,26.45
2022-10-09T12:41:52.569Z,27.14
2022-10-09T12:44:30.340Z,27.08
2022-10-09T12:47:03.261Z,25.55
2022-10-09T12:49:32.968Z,26.55
2022-10-09T12:52:03.052Z,28.22
2022-10-09T12:54:34.332Z,26.16
2022-10-09T12:57:03.767Z,24.94
2022-10-09T12:59:35.654Z,25.81
2022-10-09T13:02:04.917Z,25.49
2022-10-09T13:04:35.421Z,26.53
2022-10-09T13:07:08.412Z,25.80
2022-10-09T13:09:38.775Z,27.39
2022-10-09T13:12:11.008Z,28.56
2022-10-09T13:14:46.629Z,27.16
2022-10-09T13:17:27.043Z,27.43
2022-10-09T13:19:57.611Z,27.08
2022-10-09T13:22:29.046Z,27.23
2022-10-09T13:25:00.699Z,25.78
2022-10-09T13:27:32.503Z,26.24
2022-10-09T13:30:03.070Z,26.47
2022-10-09T13:32:31.469Z,25.55
2022-10-09T13:34:59.463Z,24.99
2022-10-09T13:37:30.622Z,26.18
2022-10-09T13:40:01.316Z,27.15
2022-10-09T13:42:33.784Z,26.37
2022-10-09T13:45:03.841Z,25.31
2022-10-09T13:47:32.389Z,26.42
2022-10-09T13:50:00.561Z,27.45
2022-10-09T13:52:29.072Z,28.68
2022-10-09T13:54:57.622Z,29.04
2022-10-09T13:57:25.877Z,29.01
2022-10-09T13:59:54.422Z,28.00
2022-10-09T14:02:24.282Z,27.95
2022-10-09T14:04:52.445Z,27.91
2022-10-09T14:07:20.642Z,26.57
2022-10-09T14:09:51.515Z,27.41
2022-10-09T14:12:19.748Z,26.04
2022-10-09T14:14:48.081Z,27.49
2022-10-09T14:17:16.705Z,29.14
2022-10-09T14:19:46.012Z,28.66
2022-10-09T14:22:14.668Z,27.51
2022-10-09T14:24:42.732Z,28.20
2022-10-09T14:27:10.590Z,27.93
2022-10-09T14:29:38.722Z,29.23
2022-10-09T14:32:08.645Z,29.52
2022-10-09T14:34:36.833Z,29.41
2022-10-09T14:37:18.479Z,29.80
2022-10-09T14:39:53.613Z,28.06
2022-10-09T14:42:21.490Z,28.69
2022-10-09T14:44:49.370Z,27.95
2022-10-09T14:47:17.305Z,29.49
2022-10-09T14:49:45.549Z,31.21
2022-10-09T14:52:14.726Z,32.02
2022-10-09T14:54:42.452Z,33.06
2022-10-09T14:57:10.312Z,32.90
2022-10-09T14:59:38.089Z,32.86
2022-10-09T15:02:07.169Z,34.18
2022-10-09T15:04:35.931Z,32.48
2022-10-09T15:07:03.835Z,31.50
2022-10-09T15:09:33.001Z,30.99
2022-10-09T15:12:01.094Z,30.86
2022-10-09T15:14:29.086Z,31.83
2022-10-09T15:16:56.945Z,32.03
2022-10-09T15:19:33.573Z,31.30
2022-10-09T15:22:01.520Z,31.20
2022-10-09T15:24:29.542Z,33.84
2022-10-09T15:26:58.946Z,34.09
2022-10-09T15:29:26.804Z,34.62
2022-10-09T15:31:54.967Z,35.46
2022-10-09T15:34:22.759Z,36.79
2022-10-09T15:36:52.684Z,35.38
2022-10-09T15:39:22.473Z,35.02
2022-10-09T15:41:53.476Z,35.81
2022-10-09T15:44:22.733Z,35.80
2022-10-09T15:46:51.159Z,36.32
2022-10-09T15:49:19.128Z,36.67
2022-10-09T15:51:46.973Z,35.60
2022-10-09T15:54:15.470Z,36.61
2022-10-09T15:56:43.479Z,37.68
2022-10-09T15:59:13.498Z,38.36
2022-10-09T16:01:42.861Z,38.69
2022-10-09T16:04:11.006Z,39.06
2022-10-09T16:06:40.474Z,39.24
2022-10-09T16:09:08.743Z,39.57
2022-10-09T16:11:36.716Z,39.98
2022-10-09T16:14:05.029Z,41.84
2022-10-09T16:16:32.781Z,43.17
2022-10-09T16:19:03.500Z,44.23
2022-10-09T16:21:32.905Z,44.14
2022-10-09T16:24:01.697Z,44.08
2022-10-09T16:26:30.416Z,45.12
2022-10-09T16:29:00.230Z,46.17
2022-10-09T16:31:30.415Z,47.47
2022-10-09T16:33:59.133Z,48.46
2022-10-09T16:36:29.358Z,49.41
2022-10-09T16:38:58.442Z,50.47
2022-10-09T16:41:26.870Z,52.21
2022-10-09T16:43:57.865Z,54.16
2022-10-09T16:46:29.473Z,55.44
2022-10-09T16:48:58.522Z,56.20
2022-10-09T16:51:30.119Z,57.03
2022-10-09T16:54:00.408Z,58.33
2022-10-09T16:56:32.971Z,58.66
2022-10-09T16:59:03.991Z,59.03
2022-10-09T17:01:32.797Z,59.20
2022-10-09T17:04:01.379Z,59.81
2022-10-09T17:06:32.633Z,60.39
2022-10-09T17:09:01.048Z,60.83
2022-10-09T17:11:30.792Z,60.75
2022-10-09T17:14:00.318Z,61.24
2022-10-09T17:16:31.226Z,61.63
2022-10-09T17:18:59.403Z,62.13
2022-10-09T17:21:32.838Z,62.45
2022-10-09T17:24:05.288Z,63.30
2022-10-09T17:26:33.220Z,64.23
2022-10-09T17:29:02.066Z,64.57
2022-10-09T17:31:31.216Z,65.06
2022-10-09T17:34:01.230Z,65.63
2022-10-09T17:36:31.425Z,65.98
2022-10-09T17:38:59.709Z,66.86
2022-10-09T17:41:30.788Z,67.07
2022-10-09T17:43:59.220Z,67.04
2022-10-09T17:46:28.658Z,67.10
2022-10-09T17:48:58.308Z,67.14
2022-10-09T17:51:29.493Z,67.52
2022-10-09T17:54:00.808Z,67.87
2022-10-09T17:56:32.619Z,67.79
2022-10-09T17:59:01.404Z,68.48
2022-10-09T18:01:32.289Z,69.17
2022-10-09T18:04:01.601Z,70.03
2022-10-09T18:06:33.097Z,70.60
2022-10-09T18:09:01.170Z,70.89
2022-10-09T18:11:31.500Z,71.56
2022-10-09T18:13:59.508Z,71.61
2022-10-09T18:16:36.867Z,72.26
2022-10-09T18:19:07.976Z,72.88
2022-10-09T18:21:36.504Z,73.43
2022-10-09T18:24:04.735Z,73.80
2022-10-09T18:26:35.069Z,74.54
2022-10-09T18:29:04.059Z,75.03
2022-10-09T18:31:32.762Z,75.73
2022-10-09T18:34:02.843Z,75.96
2022-10-09T18:36:33.636Z,76.91
2022-10-09T18:39:04.165Z,77.73
2022-10-09T18:41:32.375Z,78.67
2022-10-09T18:44:02.526Z,78.96
2022-10-09T18:46:35.035Z,79.51
2022-10-09T18:49:04.038Z,80.94
2022-10-09T18:51:32.283Z,81.85
2022-10-09T18:54:04.566Z,81.84
2022-10-09T18:56:34.394Z,81.73
2022-10-09T18:59:07.203Z,81.39
2022-10-09T19:01:35.142Z,81.35
2022-10-09T19:04:03.340Z,81.73
2022-10-09T19:06:31.453Z,82.18
2022-10-09T19:09:00.906Z,82.11
2022-10-09T19:11:29.676Z,82.11
2022-10-09T19:14:00.878Z,82.29
2022-10-09T19:16:31.900Z,82.62
2022-10-09T19:19:00.347Z,83.17
2022-10-09T19:21:29.553Z,83.61
2022-10-09T19:24:03.438Z,84.00
2022-10-09T19:26:32.743Z,84.40
2022-10-09T19:29:00.875Z,84.13
2022-10-09T19:31:32.391Z,84.37
2022-10-09T19:34:06.008Z,84.80
2022-10-09T19:36:36.606Z,84.83
2022-10-09T19:39:09.228Z,85.22
2022-10-09T19:41:39.879Z,85.45
2022-10-09T19:44:10.225Z,86.39
2022-10-09T19:46:41.258Z,86.37
2022-10-09T19:49:10.538Z,85.82
2022-10-09T19:51:39.813Z,86.08
2022-10-09T19:54:10.854Z,86.44
2022-10-09T19:56:40.481Z,86.83
2022-10-09T19:59:09.973Z,87.21
2022-10-09T20:01:40.325Z,86.97
2022-10-09T20:04:13.309Z,87.30
2022-10-09T20:06:43.415Z,87.26
2022-10-09T20:09:13.903Z,87.28
2022-10-09T20:11:42.733Z,87.77
2022-10-09T20:14:11.076Z,88.43
2022-10-09T20:16:40.520Z,88.21
2022-10-09T20:19:08.690Z,87.78
2022-10-09T20:21:38.917Z,87.98
2022-10-09T20:24:08.491Z,87.42
2022-10-09T20:26:40.923Z,87.38
2022-10-09T20:29:10.796Z,87.35
2022-10-09T20:31:40.708Z,87.12
2022-10-09T20:34:09.816Z,86.77
2022-10-09T20:36:39.163Z,86.12
2022-10-09T20:39:09.305Z,85.87
2022-10-09T20:41:38.583Z,85.17
2022-10-09T20:44:07.537Z,84.44
2022-10-09T20:46:41.948Z,84.37
2022-10-09T20:49:14.754Z,83.97
2022-10-09T20:51:43.775Z,84.17
2022-10-09T20:54:17.777Z,84.25
2022-10-09T20:56:46.699Z,83.88
2022-10-09T20:59:15.482Z,83.69
2022-10-09T21:01:44.792Z,83.46
2022-10-09T21:04:12.626Z,83.27
2022-10-09T21:06:40.906Z,82.85
2022-10-09T21:09:09.423Z,83.22
2022-10-09T21:11:38.894Z,83.25
2022-10-09T21:14:08.763Z,82.76
2022-10-09T21:16:36.545Z,82.28
2022-10-09T21:19:07.953Z,82.61
2022-10-09T21:21:35.761Z,82.79
2022-10-09T21:24:04.704Z,82.43
2022-10-09T21:26:35.596Z,82.49
2022-10-09T21:29:05.149Z,82.01
2022-10-09T21:31:34.072Z,81.87
2022-10-09T21:34:03.156Z,80.66
2022-10-09T21:36:41.128Z,80.75
2022-10-09T21:39:18.943Z,81.17
2022-10-09T21:41:46.900Z,81.41
2022-10-09T21:44:15.208Z,80.87
2022-10-09T21:46:46.414Z,80.58
2022-10-09T21:49:21.730Z,80.76
2022-10-09T21:51:52.023Z,80.71
2022-10-09T21:54:22.391Z,81.04
2022-10-09T21:56:50.623Z,81.50
2022-10-09T21:59:19.330Z,81.28
2022-10-09T22:01:47.398Z,80.88
2022-10-09T22:04:15.308Z,80.75
2022-10-09T22:06:43.839Z,80.31
2022-10-09T22:09:13.662Z,80.32
2022-10-09T22:11:44.448Z,80.32
2022-10-09T22:14:12.692Z,80.27
2022-10-09T22:16:41.123Z,79.89
2022-10-09T22:19:09.162Z,79.23
2022-10-09T22:21:38.041Z,80.22
2022-10-09T22:24:07.742Z,80.55
2022-10-09T22:26:37.627Z,82.23
2022-10-09T22:29:09.167Z,83.77
2022-10-09T22:31:37.393Z,86.78
2022-10-09T22:34:05.550Z,85.68
2022-10-09T22:36:35.531Z,85.13
2022-10-09T22:39:06.393Z,84.84
2022-10-09T22:41:36.246Z,83.46
2022-10-09T22:44:07.838Z,81.94
2022-10-09T22:46:38.583Z,80.93
2022-10-09T22:49:10.461Z,80.03
2022-10-09T22:51:39.973Z,79.66
2022-10-09T22:54:08.532Z,79.41
2022-10-09T22:56:38.980Z,79.12
2022-10-09T22:59:10.285Z,79.00
2022-10-09T23:01:41.544Z,79.51
2022-10-09T23:04:14.298Z,79.62
2022-10-09T23:06:44.048Z,80.42
2022-10-09T23:09:16.160Z,80.70
2022-10-09T23:11:44.753Z,80.82
2022-10-09T23:14:15.071Z,82.13
2022-10-09T23:16:43.469Z,82.07
2022-10-09T23:19:11.735Z,82.07
2022-10-09T23:21:41.861Z,82.36
2022-10-09T23:24:12.575Z,83.02
2022-10-09T23:26:40.638Z,83.71
2022-10-09T23:29:13.726Z,84.34
2022-10-09T23:31:43.651Z,85.33
2022-10-09T23:34:12.180Z,85.02
2022-10-09T23:36:40.352Z,85.29
2022-10-09T23:39:08.932Z,85.75
2022-10-09T23:41:36.979Z,85.26
2022-10-09T23:44:05.595Z,85.22
2022-10-09T23:46:34.567Z,85.14
2022-10-09T23:49:04.016Z,85.07
2022-10-09T23:51:32.394Z,84.90
2022-10-09T23:54:03.011Z,84.84
2022-10-09T23:56:33.142Z,85.35
2022-10-09T23:59:06.032Z,86.06
